sensor_id;sensor_type;location;lat;lon;timestamp;P1;durP1;ratioP1;P2;durP2;ratioP2
2538;SDS011;1280;49.760;9.664;2024-03-17T00:01:04;10.13;;;6.03;;
2538;SDS011;1280;49.760;9.664;2024-03-17T00:03:45;9.47;;;5.67;;
2538;SDS011;1280;49.760;9.664;2024-03-17T00:06:19;8.37;;;5.73;;
2538;SDS011;1280;49.760;9.664;2024-03-17T00:08:47;8.80;;;5.40;;
2538;SDS011;1280;49.760;9.664;2024-03-17T00:11:16;9.18;;;4.80;;
2538;SDS011;1280;49.760;9.664;2024-03-17T00:13:42;12.87;;;6.80;;
2538;SDS011;1280;49.760;9.664;2024-03-17T00:16:14;9.40;;;6.10;;
2538;SDS011;1280;49.760;9.664;2024-03-17T00:18:48;9.10;;;6.50;;
2538;SDS011;1280;49.760;9.664;2024-03-17T00:21:19;10.67;;;6.90;;
2538;SDS011;1280;49.760;9.664;2024-03-17T00:23:48;11.10;;;6.80;;
2538;SDS011;1280;49.760;9.664;2024-03-17T00:26:26;9.37;;;5.83;;
2538;SDS011;1280;49.760;9.664;2024-03-17T00:28:55;13.27;;;8.40;;
2538;SDS011;1280;49.760;9.664;2024-03-17T00:31:26;11.30;;;8.73;;
2538;SDS011;1280;49.760;9.664;2024-03-17T00:34:07;30.43;;;16.60;;
2538;SDS011;1280;49.760;9.664;2024-03-17T00:36:36;43.43;;;22.10;;
2538;SDS011;1280;49.760;9.664;2024-03-17T00:39:04;43.73;;;21.67;;
2538;SDS011;1280;49.760;9.664;2024-03-17T00:41:33;23.60;;;12.50;;
2538;SDS011;1280;49.760;9.664;2024-03-17T00:44:02;25.30;;;12.33;;
2538;SDS011;1280;49.760;9.664;2024-03-17T00:46:32;18.53;;;10.60;;
2538;SDS011;1280;49.760;9.664;2024-03-17T00:49:20;12.00;;;6.33;;
2538;SDS011;1280;49.760;9.664;2024-03-17T00:51:53;9.10;;;5.60;;
2538;SDS011;1280;49.760;9.664;2024-03-17T00:54:23;9.30;;;5.00;;
2538;SDS011;1280;49.760;9.664;2024-03-17T00:56:53;10.30;;;6.93;;
2538;SDS011;1280;49.760;9.664;2024-03-17T00:59:21;12.30;;;7.80;;
2538;SDS011;1280;49.760;9.664;2024-03-17T01:01:50;14.57;;;9.23;;
2538;SDS011;1280;49.760;9.664;2024-03-17T01:04:26;59.33;;;32.20;;
2538;SDS011;1280;49.760;9.664;2024-03-17T01:06:55;29.97;;;15.73;;
2538;SDS011;1280;49.760;9.664;2024-03-17T01:09:23;30.40;;;15.13;;
2538;SDS011;1280;49.760;9.664;2024-03-17T01:11:54;25.93;;;10.97;;
2538;SDS011;1280;49.760;9.664;2024-03-17T01:14:21;15.50;;;8.87;;
2538;SDS011;1280;49.760;9.664;2024-03-17T01:16:51;16.87;;;8.50;;
2538;SDS011;1280;49.760;9.664;2024-03-17T01:19:20;15.53;;;9.10;;
2538;SDS011;1280;49.760;9.664;2024-03-17T01:21:55;14.47;;;7.83;;
2538;SDS011;1280;49.760;9.664;2024-03-17T01:24:26;16.27;;;9.27;;
2538;SDS011;1280;49.760;9.664;2024-03-17T01:27:00;18.02;;;8.93;;
2538;SDS011;1280;49.760;9.664;2024-03-17T01:29:28;13.97;;;7.90;;
2538;SDS011;1280;49.760;9.664;2024-03-17T01:32:04;13.57;;;6.80;;
2538;SDS011;1280;49.760;9.664;2024-03-17T01:34:33;12.20;;;6.90;;
2538;SDS011;1280;49.760;9.664;2024-03-17T01:37:13;18.77;;;8.43;;
2538;SDS011;1280;49.760;9.664;2024-03-17T01:39:41;16.53;;;7.77;;
2538;SDS011;1280;49.760;9.664;2024-03-17T01:42:11;33.92;;;17.40;;
2538;SDS011;1280;49.760;9.664;2024-03-17T01:44:52;30.80;;;16.80;;
2538;SDS011;1280;49.760;9.664;2024-03-17T01:47:21;19.87;;;11.93;;
2538;SDS011;1280;49.760;9.664;2024-03-17T01:49:51;23.70;;;12.03;;
2538;SDS011;1280;49.760;9.664;2024-03-17T01:52:28;19.80;;;11.70;;
2538;SDS011;1280;49.760;9.664;2024-03-17T01:54:55;17.07;;;9.87;;
2538;SDS011;1280;49.760;9.664;2024-03-17T01:57:33;16.43;;;8.00;;
2538;SDS011;1280;49.760;9.664;2024-03-17T02:00:01;16.23;;;9.17;;
2538;SDS011;1280;49.760;9.664;2024-03-17T02:02:34;13.68;;;8.25;;
2538;SDS011;1280;49.760;9.664;2024-03-17T02:05:05;15.13;;;8.23;;
2538;SDS011;1280;49.760;9.664;2024-03-17T02:07:43;17.40;;;8.03;;
2538;SDS011;1280;49.760;9.664;2024-03-17T02:10:10;14.50;;;8.90;;
2538;SDS011;1280;49.760;9.664;2024-03-17T02:12:40;18.45;;;9.93;;
2538;SDS011;1280;49.760;9.664;2024-03-17T02:15:08;20.10;;;10.40;;
2538;SDS011;1280;49.760;9.664;2024-03-17T02:17:44;13.10;;;8.30;;
2538;SDS011;1280;49.760;9.664;2024-03-17T02:20:11;17.50;;;9.10;;
2538;SDS011;1280;49.760;9.664;2024-03-17T02:22:54;21.80;;;11.70;;
2538;SDS011;1280;49.760;9.664;2024-03-17T02:25:23;17.23;;;10.00;;
2538;SDS011;1280;49.760;9.664;2024-03-17T02:27:52;18.03;;;8.43;;
2538;SDS011;1280;49.760;9.664;2024-03-17T02:30:20;10.38;;;6.53;;
2538;SDS011;1280;49.760;9.664;2024-03-17T02:32:54;11.33;;;6.07;;
2538;SDS011;1280;49.760;9.664;2024-03-17T02:35:24;11.77;;;6.10;;
2538;SDS011;1280;49.760;9.664;2024-03-17T02:41:56;49.50;;;26.83;;
2538;SDS011;1280;49.760;9.664;2024-03-17T02:44:26;29.35;;;15.95;;
2538;SDS011;1280;49.760;9.664;2024-03-17T02:47:01;25.98;;;16.10;;
2538;SDS011;1280;49.760;9.664;2024-03-17T02:49:36;14.80;;;8.43;;
2538;SDS011;1280;49.760;9.664;2024-03-17T02:52:11;9.75;;;6.10;;
2538;SDS011;1280;49.760;9.664;2024-03-17T02:54:40;12.03;;;6.00;;
2538;SDS011;1280;49.760;9.664;2024-03-17T02:57:11;8.73;;;5.47;;
2538;SDS011;1280;49.760;9.664;2024-03-17T02:59:48;8.10;;;5.50;;
2538;SDS011;1280;49.760;9.664;2024-03-17T03:02:20;17.45;;;7.03;;
2538;SDS011;1280;49.760;9.664;2024-03-17T03:04:54;11.27;;;7.45;;
2538;SDS011;1280;49.760;9.664;2024-03-17T03:07:23;18.05;;;9.82;;
2538;SDS011;1280;49.760;9.664;2024-03-17T03:09:55;25.90;;;12.77;;
2538;SDS011;1280;49.760;9.664;2024-03-17T03:12:28;17.63;;;10.20;;
2538;SDS011;1280;49.760;9.664;2024-03-17T03:15:02;13.03;;;6.73;;
2538;SDS011;1280;49.760;9.664;2024-03-17T03:17:40;11.48;;;6.32;;
2538;SDS011;1280;49.760;9.664;2024-03-17T03:20:18;11.98;;;6.25;;
2538;SDS011;1280;49.760;9.664;2024-03-17T03:22:49;11.00;;;6.20;;
2538;SDS011;1280;49.760;9.664;2024-03-17T03:25:25;10.57;;;6.05;;
2538;SDS011;1280;49.760;9.664;2024-03-17T03:28:00;8.40;;;5.20;;
2538;SDS011;1280;49.760;9.664;2024-03-17T03:30:28;11.07;;;6.10;;
2538;SDS011;1280;49.760;9.664;2024-03-17T03:33:06;8.93;;;5.63;;
2538;SDS011;1280;49.760;9.664;2024-03-17T03:35:49;12.70;;;7.03;;
2538;SDS011;1280;49.760;9.664;2024-03-17T03:38:18;9.32;;;6.45;;
2538;SDS011;1280;49.760;9.664;2024-03-17T03:40:56;10.85;;;6.18;;
2538;SDS011;1280;49.760;9.664;2024-03-17T03:43:33;11.10;;;6.55;;
2538;SDS011;1280;49.760;9.664;2024-03-17T03:46:17;10.50;;;6.40;;
2538;SDS011;1280;49.760;9.664;2024-03-17T03:48:54;11.77;;;5.30;;
2538;SDS011;1280;49.760;9.664;2024-03-17T03:51:40;8.20;;;5.22;;
2538;SDS011;1280;49.760;9.664;2024-03-17T03:54:11;10.82;;;6.18;;
2538;SDS011;1280;49.760;9.664;2024-03-17T03:56:39;9.90;;;6.50;;
2538;SDS011;1280;49.760;9.664;2024-03-17T03:59:23;14.35;;;6.65;;
2538;SDS011;1280;49.760;9.664;2024-03-17T04:01:52;11.80;;;6.22;;
2538;SDS011;1280;49.760;9.664;2024-03-17T04:04:23;9.77;;;6.25;;
2538;SDS011;1280;49.760;9.664;2024-03-17T04:07:08;11.73;;;5.82;;
2538;SDS011;1280;49.760;9.664;2024-03-17T04:09:40;11.85;;;6.45;;
2538;SDS011;1280;49.760;9.664;2024-03-17T04:12:10;9.03;;;5.87;;
2538;SDS011;1280;49.760;9.664;2024-03-17T04:14:45;9.85;;;5.82;;
2538;SDS011;1280;49.760;9.664;2024-03-17T04:17:20;9.85;;;6.07;;
2538;SDS011;1280;49.760;9.664;2024-03-17T04:19:51;10.00;;;5.70;;
2538;SDS011;1280;49.760;9.664;2024-03-17T04:22:19;10.32;;;5.90;;
2538;SDS011;1280;49.760;9.664;2024-03-17T04:24:49;9.50;;;5.90;;
2538;SDS011;1280;49.760;9.664;2024-03-17T04:27:25;9.60;;;5.63;;
2538;SDS011;1280;49.760;9.664;2024-03-17T04:29:59;10.13;;;6.82;;
2538;SDS011;1280;49.760;9.664;2024-03-17T04:32:31;11.05;;;7.00;;
2538;SDS011;1280;49.760;9.664;2024-03-17T04:35:02;10.10;;;6.72;;
2538;SDS011;1280;49.760;9.664;2024-03-17T04:37:30;10.40;;;6.75;;
2538;SDS011;1280;49.760;9.664;2024-03-17T04:40:08;9.40;;;6.30;;
2538;SDS011;1280;49.760;9.664;2024-03-17T04:42:37;8.20;;;4.80;;
2538;SDS011;1280;49.760;9.664;2024-03-17T04:45:15;8.90;;;5.47;;
2538;SDS011;1280;49.760;9.664;2024-03-17T04:47:42;8.00;;;5.13;;
2538;SDS011;1280;49.760;9.664;2024-03-17T04:50:13;8.57;;;5.03;;
2538;SDS011;1280;49.760;9.664;2024-03-17T04:52:44;9.57;;;5.83;;
2538;SDS011;1280;49.760;9.664;2024-03-17T04:55:15;9.03;;;5.50;;
2538;SDS011;1280;49.760;9.664;2024-03-17T04:57:45;8.65;;;5.90;;
2538;SDS011;1280;49.760;9.664;2024-03-17T05:00:20;9.27;;;6.10;;
2538;SDS011;1280;49.760;9.664;2024-03-17T05:02:51;8.50;;;5.43;;
2538;SDS011;1280;49.760;9.664;2024-03-17T05:05:26;7.35;;;4.45;;
2538;SDS011;1280;49.760;9.664;2024-03-17T05:07:59;9.43;;;5.70;;
2538;SDS011;1280;49.760;9.664;2024-03-17T05:10:30;12.55;;;7.63;;
2538;SDS011;1280;49.760;9.664;2024-03-17T05:13:00;12.77;;;6.25;;
2538;SDS011;1280;49.760;9.664;2024-03-17T05:15:38;9.90;;;6.00;;
2538;SDS011;1280;49.760;9.664;2024-03-17T05:18:08;10.10;;;6.53;;
2538;SDS011;1280;49.760;9.664;2024-03-17T05:20:56;9.65;;;6.13;;
2538;SDS011;1280;49.760;9.664;2024-03-17T05:23:30;10.13;;;6.00;;
2538;SDS011;1280;49.760;9.664;2024-03-17T05:26:04;11.23;;;6.73;;
2538;SDS011;1280;49.760;9.664;2024-03-17T05:28:35;10.27;;;5.77;;
2538;SDS011;1280;49.760;9.664;2024-03-17T05:31:07;10.50;;;6.00;;
2538;SDS011;1280;49.760;9.664;2024-03-17T05:33:43;9.85;;;5.97;;
2538;SDS011;1280;49.760;9.664;2024-03-17T05:36:12;10.40;;;5.90;;
2538;SDS011;1280;49.760;9.664;2024-03-17T05:38:49;8.60;;;4.83;;
2538;SDS011;1280;49.760;9.664;2024-03-17T05:41:17;10.07;;;5.85;;
2538;SDS011;1280;49.760;9.664;2024-03-17T05:43:48;11.07;;;6.50;;
2538;SDS011;1280;49.760;9.664;2024-03-17T05:46:26;11.90;;;6.77;;
2538;SDS011;1280;49.760;9.664;2024-03-17T05:48:57;12.47;;;7.10;;
2538;SDS011;1280;49.760;9.664;2024-03-17T05:51:29;13.37;;;8.10;;
2538;SDS011;1280;49.760;9.664;2024-03-17T05:54:07;14.02;;;7.00;;
2538;SDS011;1280;49.760;9.664;2024-03-17T05:56:38;9.35;;;6.40;;
2538;SDS011;1280;49.760;9.664;2024-03-17T05:59:07;10.73;;;6.83;;
2538;SDS011;1280;49.760;9.664;2024-03-17T06:01:53;8.88;;;5.47;;
2538;SDS011;1280;49.760;9.664;2024-03-17T06:04:24;9.48;;;6.10;;
2538;SDS011;1280;49.760;9.664;2024-03-17T06:06:54;9.93;;;6.47;;
2538;SDS011;1280;49.760;9.664;2024-03-17T06:09:23;18.53;;;7.60;;
2538;SDS011;1280;49.760;9.664;2024-03-17T06:12:08;11.73;;;8.25;;
2538;SDS011;1280;49.760;9.664;2024-03-17T06:14:43;11.10;;;6.77;;
2538;SDS011;1280;49.760;9.664;2024-03-17T06:17:17;9.57;;;5.95;;
2538;SDS011;1280;49.760;9.664;2024-03-17T06:19:48;9.45;;;5.65;;
2538;SDS011;1280;49.760;9.664;2024-03-17T06:22:16;10.70;;;6.38;;
2538;SDS011;1280;49.760;9.664;2024-03-17T06:24:50;8.05;;;5.15;;
2538;SDS011;1280;49.760;9.664;2024-03-17T06:27:22;15.80;;;5.40;;
2538;SDS011;1280;49.760;9.664;2024-03-17T06:29:54;9.15;;;5.28;;
2538;SDS011;1280;49.760;9.664;2024-03-17T06:32:27;9.85;;;6.63;;
2538;SDS011;1280;49.760;9.664;2024-03-17T06:34:58;10.27;;;6.70;;
2538;SDS011;1280;49.760;9.664;2024-03-17T06:37:28;26.07;;;17.50;;
2538;SDS011;1280;49.760;9.664;2024-03-17T06:39:58;33.22;;;23.42;;
2538;SDS011;1280;49.760;9.664;2024-03-17T06:42:29;24.75;;;14.73;;
2538;SDS011;1280;49.760;9.664;2024-03-17T06:45:06;18.48;;;12.65;;
2538;SDS011;1280;49.760;9.664;2024-03-17T06:47:42;13.88;;;9.35;;
2538;SDS011;1280;49.760;9.664;2024-03-17T06:50:11;15.67;;;9.10;;
2538;SDS011;1280;49.760;9.664;2024-03-17T06:52:43;11.80;;;8.43;;
2538;SDS011;1280;49.760;9.664;2024-03-17T06:55:38;14.90;;;8.60;;
2538;SDS011;1280;49.760;9.664;2024-03-17T06:58:09;15.60;;;8.40;;
2538;SDS011;1280;49.760;9.664;2024-03-17T07:00:55;14.52;;;8.98;;
2538;SDS011;1280;49.760;9.664;2024-03-17T07:03:29;13.07;;;8.97;;
2538;SDS011;1280;49.760;9.664;2024-03-17T07:05:59;14.23;;;9.65;;
2538;SDS011;1280;49.760;9.664;2024-03-17T07:08:37;15.97;;;10.60;;
2538;SDS011;1280;49.760;9.664;2024-03-17T07:11:09;16.57;;;11.03;;
2538;SDS011;1280;49.760;9.664;2024-03-17T07:13:44;16.63;;;10.87;;
2538;SDS011;1280;49.760;9.664;2024-03-17T07:16:19;13.05;;;9.10;;
2538;SDS011;1280;49.760;9.664;2024-03-17T07:18:48;14.20;;;9.70;;
2538;SDS011;1280;49.760;9.664;2024-03-17T07:21:15;14.93;;;10.17;;
2538;SDS011;1280;49.760;9.664;2024-03-17T07:23:44;16.97;;;12.00;;
2538;SDS011;1280;49.760;9.664;2024-03-17T07:26:11;20.03;;;13.33;;
2538;SDS011;1280;49.760;9.664;2024-03-17T07:28:39;20.60;;;14.87;;
2538;SDS011;1280;49.760;9.664;2024-03-17T07:31:08;18.23;;;12.40;;
2538;SDS011;1280;49.760;9.664;2024-03-17T07:33:35;20.00;;;12.97;;
2538;SDS011;1280;49.760;9.664;2024-03-17T07:36:04;16.87;;;10.80;;
2538;SDS011;1280;49.760;9.664;2024-03-17T07:38:34;14.37;;;8.37;;
2538;SDS011;1280;49.760;9.664;2024-03-17T07:41:01;15.40;;;10.73;;
2538;SDS011;1280;49.760;9.664;2024-03-17T07:43:30;20.53;;;13.00;;
2538;SDS011;1280;49.760;9.664;2024-03-17T07:46:03;24.70;;;14.53;;
2538;SDS011;1280;49.760;9.664;2024-03-17T07:48:31;21.90;;;15.27;;
2538;SDS011;1280;49.760;9.664;2024-03-17T07:51:01;22.70;;;14.53;;
2538;SDS011;1280;49.760;9.664;2024-03-17T07:53:34;17.57;;;12.10;;
2538;SDS011;1280;49.760;9.664;2024-03-17T07:56:08;14.70;;;8.70;;
2538;SDS011;1280;49.760;9.664;2024-03-17T07:58:41;11.87;;;7.70;;
2538;SDS011;1280;49.760;9.664;2024-03-17T08:01:15;12.83;;;7.97;;
2538;SDS011;1280;49.760;9.664;2024-03-17T08:03:47;12.50;;;8.07;;
2538;SDS011;1280;49.760;9.664;2024-03-17T08:06:25;12.50;;;7.90;;
2538;SDS011;1280;49.760;9.664;2024-03-17T08:08:55;12.60;;;8.07;;
2538;SDS011;1280;49.760;9.664;2024-03-17T08:11:27;13.60;;;9.40;;
2538;SDS011;1280;49.760;9.664;2024-03-17T08:13:56;14.23;;;8.50;;
2538;SDS011;1280;49.760;9.664;2024-03-17T08:16:29;11.90;;;7.93;;
2538;SDS011;1280;49.760;9.664;2024-03-17T08:19:06;16.93;;;9.17;;
2538;SDS011;1280;49.760;9.664;2024-03-17T08:21:38;15.07;;;9.30;;
2538;SDS011;1280;49.760;9.664;2024-03-17T08:24:08;12.63;;;8.73;;
2538;SDS011;1280;49.760;9.664;2024-03-17T08:26:42;14.00;;;8.77;;
2538;SDS011;1280;49.760;9.664;2024-03-17T08:29:12;12.90;;;8.87;;
2538;SDS011;1280;49.760;9.664;2024-03-17T08:31:49;14.20;;;8.73;;
2538;SDS011;1280;49.760;9.664;2024-03-17T08:34:33;12.57;;;7.90;;
2538;SDS011;1280;49.760;9.664;2024-03-17T08:37:06;11.77;;;8.30;;
2538;SDS011;1280;49.760;9.664;2024-03-17T08:39:38;14.20;;;8.90;;
2538;SDS011;1280;49.760;9.664;2024-03-17T08:42:08;16.90;;;8.77;;
2538;SDS011;1280;49.760;9.664;2024-03-17T08:44:38;12.90;;;8.50;;
2538;SDS011;1280;49.760;9.664;2024-03-17T08:47:11;14.60;;;9.97;;
2538;SDS011;1280;49.760;9.664;2024-03-17T08:49:54;14.57;;;10.13;;
2538;SDS011;1280;49.760;9.664;2024-03-17T08:52:41;15.13;;;10.07;;
2538;SDS011;1280;49.760;9.664;2024-03-17T08:55:11;14.97;;;9.77;;
2538;SDS011;1280;49.760;9.664;2024-03-17T08:57:45;16.20;;;9.20;;
2538;SDS011;1280;49.760;9.664;2024-03-17T09:00:14;14.77;;;9.37;;
2538;SDS011;1280;49.760;9.664;2024-03-17T09:02:45;14.37;;;8.53;;
2538;SDS011;1280;49.760;9.664;2024-03-17T09:05:13;11.50;;;8.23;;
2538;SDS011;1280;49.760;9.664;2024-03-17T09:07:42;12.20;;;7.90;;
2538;SDS011;1280;49.760;9.664;2024-03-17T09:10:11;14.63;;;8.67;;
2538;SDS011;1280;49.760;9.664;2024-03-17T09:12:39;13.93;;;9.20;;
2538;SDS011;1280;49.760;9.664;2024-03-17T09:15:13;12.53;;;8.40;;
2538;SDS011;1280;49.760;9.664;2024-03-17T09:17:45;13.77;;;8.97;;
2538;SDS011;1280;49.760;9.664;2024-03-17T09:20:18;12.73;;;7.47;;
2538;SDS011;1280;49.760;9.664;2024-03-17T09:22:59;11.90;;;7.90;;
2538;SDS011;1280;49.760;9.664;2024-03-17T09:25:29;13.37;;;8.30;;
2538;SDS011;1280;49.760;9.664;2024-03-17T09:28:01;13.60;;;8.60;;
2538;SDS011;1280;49.760;9.664;2024-03-17T09:30:31;12.47;;;7.43;;
2538;SDS011;1280;49.760;9.664;2024-03-17T09:33:02;16.23;;;8.70;;
2538;SDS011;1280;49.760;9.664;2024-03-17T09:35:32;13.53;;;8.00;;
2538;SDS011;1280;49.760;9.664;2024-03-17T09:38:11;12.67;;;7.77;;
2538;SDS011;1280;49.760;9.664;2024-03-17T09:40:45;11.80;;;7.10;;
2538;SDS011;1280;49.760;9.664;2024-03-17T09:43:21;13.23;;;6.97;;
2538;SDS011;1280;49.760;9.664;2024-03-17T09:46:07;10.43;;;7.00;;
2538;SDS011;1280;49.760;9.664;2024-03-17T09:48:40;11.27;;;5.70;;
2538;SDS011;1280;49.760;9.664;2024-03-17T09:51:13;10.93;;;6.20;;
2538;SDS011;1280;49.760;9.664;2024-03-17T09:56:28;10.50;;;6.03;;
2538;SDS011;1280;49.760;9.664;2024-03-17T09:58:58;11.40;;;5.40;;
2538;SDS011;1280;49.760;9.664;2024-03-17T10:01:31;10.40;;;6.30;;
2538;SDS011;1280;49.760;9.664;2024-03-17T10:03:59;9.40;;;5.17;;
2538;SDS011;1280;49.760;9.664;2024-03-17T10:06:30;9.40;;;5.03;;
2538;SDS011;1280;49.760;9.664;2024-03-17T10:09:05;8.87;;;4.70;;
2538;SDS011;1280;49.760;9.664;2024-03-17T10:12:02;15.60;;;5.70;;
2538;SDS011;1280;49.760;9.664;2024-03-17T10:14:30;11.37;;;5.50;;
2538;SDS011;1280;49.760;9.664;2024-03-17T10:17:02;9.50;;;5.17;;
2538;SDS011;1280;49.760;9.664;2024-03-17T10:19:30;9.63;;;5.60;;
2538;SDS011;1280;49.760;9.664;2024-03-17T10:21:59;11.03;;;5.50;;
2538;SDS011;1280;49.760;9.664;2024-03-17T10:24:48;9.73;;;6.00;;
2538;SDS011;1280;49.760;9.664;2024-03-17T10:27:27;12.07;;;6.10;;
2538;SDS011;1280;49.760;9.664;2024-03-17T10:30:14;10.67;;;5.20;;
2538;SDS011;1280;49.760;9.664;2024-03-17T10:32:55;8.90;;;5.43;;
2538;SDS011;1280;49.760;9.664;2024-03-17T10:35:31;9.60;;;5.13;;
2538;SDS011;1280;49.760;9.664;2024-03-17T10:38:06;9.10;;;5.40;;
2538;SDS011;1280;49.760;9.664;2024-03-17T10:40:41;10.83;;;5.87;;
2538;SDS011;1280;49.760;9.664;2024-03-17T10:43:13;10.63;;;5.33;;
2538;SDS011;1280;49.760;9.664;2024-03-17T10:45:47;10.43;;;5.53;;
2538;SDS011;1280;49.760;9.664;2024-03-17T10:48:19;11.57;;;6.57;;
2538;SDS011;1280;49.760;9.664;2024-03-17T10:51:00;9.83;;;6.03;;
2538;SDS011;1280;49.760;9.664;2024-03-17T10:53:36;9.83;;;5.97;;
2538;SDS011;1280;49.760;9.664;2024-03-17T10:56:17;8.60;;;4.43;;
2538;SDS011;1280;49.760;9.664;2024-03-17T10:58:51;14.40;;;7.83;;
2538;SDS011;1280;49.760;9.664;2024-03-17T11:01:23;7.83;;;4.57;;
2538;SDS011;1280;49.760;9.664;2024-03-17T11:03:54;9.00;;;5.37;;
2538;SDS011;1280;49.760;9.664;2024-03-17T11:06:29;10.20;;;4.80;;
2538;SDS011;1280;49.760;9.664;2024-03-17T11:08:58;9.50;;;5.20;;
2538;SDS011;1280;49.760;9.664;2024-03-17T11:11:38;7.53;;;4.40;;
2538;SDS011;1280;49.760;9.664;2024-03-17T11:14:20;8.83;;;4.50;;
2538;SDS011;1280;49.760;9.664;2024-03-17T11:16:52;8.83;;;4.90;;
2538;SDS011;1280;49.760;9.664;2024-03-17T11:19:22;10.63;;;5.07;;
2538;SDS011;1280;49.760;9.664;2024-03-17T11:31:35;9.03;;;4.30;;
2538;SDS011;1280;49.760;9.664;2024-03-17T11:34:35;9.17;;;5.03;;
2538;SDS011;1280;49.760;9.664;2024-03-17T11:37:05;8.50;;;5.00;;
2538;SDS011;1280;49.760;9.664;2024-03-17T11:39:49;7.60;;;4.80;;
2538;SDS011;1280;49.760;9.664;2024-03-17T11:42:25;11.40;;;5.50;;
2538;SDS011;1280;49.760;9.664;2024-03-17T11:44:58;8.13;;;4.27;;
2538;SDS011;1280;49.760;9.664;2024-03-17T11:47:36;9.20;;;5.10;;
2538;SDS011;1280;49.760;9.664;2024-03-17T11:50:09;10.73;;;5.50;;
2538;SDS011;1280;49.760;9.664;2024-03-17T11:52:41;10.00;;;5.17;;
2538;SDS011;1280;49.760;9.664;2024-03-17T11:55:19;8.40;;;5.00;;
2538;SDS011;1280;49.760;9.664;2024-03-17T11:57:55;7.77;;;4.93;;
2538;SDS011;1280;49.760;9.664;2024-03-17T12:00:28;10.80;;;5.50;;
2538;SDS011;1280;49.760;9.664;2024-03-17T12:03:01;11.00;;;5.80;;
2538;SDS011;1280;49.760;9.664;2024-03-17T12:05:29;9.23;;;5.07;;
2538;SDS011;1280;49.760;9.664;2024-03-17T12:08:09;8.47;;;5.10;;
2538;SDS011;1280;49.760;9.664;2024-03-17T12:10:47;11.80;;;5.20;;
2538;SDS011;1280;49.760;9.664;2024-03-17T12:13:17;11.50;;;5.83;;
2538;SDS011;1280;49.760;9.664;2024-03-17T12:15:46;8.97;;;5.60;;
2538;SDS011;1280;49.760;9.664;2024-03-17T12:18:23;10.80;;;5.70;;
2538;SDS011;1280;49.760;9.664;2024-03-17T12:20:51;9.83;;;5.93;;
2538;SDS011;1280;49.760;9.664;2024-03-17T12:23:26;9.50;;;5.67;;
2538;SDS011;1280;49.760;9.664;2024-03-17T12:25:56;10.40;;;5.70;;
2538;SDS011;1280;49.760;9.664;2024-03-17T12:28:29;11.27;;;6.07;;
2538;SDS011;1280;49.760;9.664;2024-03-17T12:31:00;11.20;;;5.33;;
2538;SDS011;1280;49.760;9.664;2024-03-17T12:33:32;9.67;;;5.67;;
2538;SDS011;1280;49.760;9.664;2024-03-17T12:35:59;9.03;;;5.73;;
2538;SDS011;1280;49.760;9.664;2024-03-17T12:38:33;8.90;;;5.43;;
2538;SDS011;1280;49.760;9.664;2024-03-17T12:41:02;12.00;;;6.20;;
2538;SDS011;1280;49.760;9.664;2024-03-17T12:43:36;9.60;;;5.87;;
2538;SDS011;1280;49.760;9.664;2024-03-17T12:46:22;10.33;;;6.23;;
2538;SDS011;1280;49.760;9.664;2024-03-17T12:48:58;11.10;;;5.13;;
2538;SDS011;1280;49.760;9.664;2024-03-17T12:51:27;8.57;;;5.40;;
2538;SDS011;1280;49.760;9.664;2024-03-17T12:56:42;12.77;;;6.97;;
2538;SDS011;1280;49.760;9.664;2024-03-17T12:59:39;10.20;;;6.37;;
2538;SDS011;1280;49.760;9.664;2024-03-17T13:02:32;11.97;;;6.33;;
2538;SDS011;1280;49.760;9.664;2024-03-17T13:05:15;9.40;;;5.90;;
2538;SDS011;1280;49.760;9.664;2024-03-17T13:07:50;11.17;;;6.10;;
2538;SDS011;1280;49.760;9.664;2024-03-17T13:10:24;9.83;;;5.73;;
2538;SDS011;1280;49.760;9.664;2024-03-17T13:13:00;9.50;;;5.70;;
2538;SDS011;1280;49.760;9.664;2024-03-17T13:15:36;8.53;;;5.13;;
2538;SDS011;1280;49.760;9.664;2024-03-17T13:18:18;9.83;;;5.73;;
2538;SDS011;1280;49.760;9.664;2024-03-17T13:20:50;10.90;;;6.20;;
2538;SDS011;1280;49.760;9.664;2024-03-17T13:23:23;9.93;;;5.40;;
2538;SDS011;1280;49.760;9.664;2024-03-17T13:25:53;9.30;;;5.77;;
2538;SDS011;1280;49.760;9.664;2024-03-17T13:28:42;13.10;;;7.10;;
2538;SDS011;1280;49.760;9.664;2024-03-17T13:31:16;10.23;;;5.70;;
2538;SDS011;1280;49.760;9.664;2024-03-17T13:33:49;12.03;;;6.73;;
2538;SDS011;1280;49.760;9.664;2024-03-17T13:36:18;14.37;;;6.60;;
2538;SDS011;1280;49.760;9.664;2024-03-17T13:38:52;12.10;;;7.60;;
2538;SDS011;1280;49.760;9.664;2024-03-17T13:41:27;21.03;;;6.43;;
2538;SDS011;1280;49.760;9.664;2024-03-17T13:44:05;9.37;;;6.40;;
2538;SDS011;1280;49.760;9.664;2024-03-17T13:46:37;11.37;;;6.03;;
2538;SDS011;1280;49.760;9.664;2024-03-17T13:49:13;11.30;;;6.40;;
2538;SDS011;1280;49.760;9.664;2024-03-17T13:51:45;9.80;;;5.50;;
2538;SDS011;1280;49.760;9.664;2024-03-17T13:54:19;12.67;;;5.47;;
2538;SDS011;1280;49.760;9.664;2024-03-17T13:56:49;8.10;;;4.67;;
2538;SDS011;1280;49.760;9.664;2024-03-17T13:59:29;8.03;;;4.13;;
2538;SDS011;1280;49.760;9.664;2024-03-17T14:02:04;10.00;;;5.40;;
2538;SDS011;1280;49.760;9.664;2024-03-17T14:04:39;9.20;;;4.37;;
2538;SDS011;1280;49.760;9.664;2024-03-17T14:07:14;11.60;;;5.00;;
2538;SDS011;1280;49.760;9.664;2024-03-17T14:09:47;10.33;;;5.77;;
2538;SDS011;1280;49.760;9.664;2024-03-17T14:12:21;8.10;;;4.80;;
2538;SDS011;1280;49.760;9.664;2024-03-17T14:14:52;8.67;;;4.90;;
2538;SDS011;1280;49.760;9.664;2024-03-17T14:17:37;9.57;;;4.17;;
2538;SDS011;1280;49.760;9.664;2024-03-17T14:20:21;8.67;;;4.30;;
2538;SDS011;1280;49.760;9.664;2024-03-17T14:23:04;8.63;;;4.33;;
2538;SDS011;1280;49.760;9.664;2024-03-17T14:25:36;9.67;;;4.90;;
2538;SDS011;1280;49.760;9.664;2024-03-17T14:28:05;10.70;;;4.50;;
2538;SDS011;1280;49.760;9.664;2024-03-17T14:30:35;7.30;;;4.43;;
2538;SDS011;1280;49.760;9.664;2024-03-17T14:33:07;7.73;;;4.27;;
2538;SDS011;1280;49.760;9.664;2024-03-17T14:35:37;9.30;;;4.50;;
2538;SDS011;1280;49.760;9.664;2024-03-17T14:38:08;7.97;;;3.63;;
2538;SDS011;1280;49.760;9.664;2024-03-17T14:40:40;8.30;;;4.20;;
2538;SDS011;1280;49.760;9.664;2024-03-17T14:43:09;6.40;;;3.80;;
2538;SDS011;1280;49.760;9.664;2024-03-17T14:45:49;6.93;;;4.30;;
2538;SDS011;1280;49.760;9.664;2024-03-17T14:48:21;8.50;;;4.80;;
2538;SDS011;1280;49.760;9.664;2024-03-17T14:50:57;9.70;;;5.10;;
2538;SDS011;1280;49.760;9.664;2024-03-17T14:53:28;7.47;;;4.43;;
2538;SDS011;1280;49.760;9.664;2024-03-17T14:55:58;8.90;;;4.57;;
2538;SDS011;1280;49.760;9.664;2024-03-17T14:58:30;8.13;;;3.60;;
2538;SDS011;1280;49.760;9.664;2024-03-17T15:01:13;8.23;;;4.00;;
2538;SDS011;1280;49.760;9.664;2024-03-17T15:03:45;9.33;;;4.50;;
2538;SDS011;1280;49.760;9.664;2024-03-17T15:06:27;7.33;;;3.70;;
2538;SDS011;1280;49.760;9.664;2024-03-17T15:08:58;7.70;;;3.40;;
2538;SDS011;1280;49.760;9.664;2024-03-17T15:11:29;8.30;;;3.60;;
2538;SDS011;1280;49.760;9.664;2024-03-17T15:14:10;8.20;;;3.60;;
2538;SDS011;1280;49.760;9.664;2024-03-17T15:16:43;8.60;;;4.50;;
2538;SDS011;1280;49.760;9.664;2024-03-17T15:19:14;7.67;;;3.80;;
2538;SDS011;1280;49.760;9.664;2024-03-17T15:21:54;8.30;;;3.63;;
2538;SDS011;1280;49.760;9.664;2024-03-17T15:24:24;8.10;;;3.80;;
2538;SDS011;1280;49.760;9.664;2024-03-17T15:26:58;6.50;;;3.40;;
2538;SDS011;1280;49.760;9.664;2024-03-17T15:29:35;6.90;;;3.73;;
2538;SDS011;1280;49.760;9.664;2024-03-17T15:32:05;6.53;;;3.77;;
2538;SDS011;1280;49.760;9.664;2024-03-17T15:34:40;7.63;;;3.13;;
2538;SDS011;1280;49.760;9.664;2024-03-17T15:37:14;8.60;;;3.83;;
2538;SDS011;1280;49.760;9.664;2024-03-17T15:39:41;6.30;;;3.80;;
2538;SDS011;1280;49.760;9.664;2024-03-17T15:42:09;8.13;;;4.20;;
2538;SDS011;1280;49.760;9.664;2024-03-17T15:44:40;5.97;;;3.03;;
2538;SDS011;1280;49.760;9.664;2024-03-17T15:47:17;7.70;;;3.80;;
2538;SDS011;1280;49.760;9.664;2024-03-17T15:49:44;7.97;;;3.50;;
2538;SDS011;1280;49.760;9.664;2024-03-17T15:52:18;9.57;;;3.87;;
2538;SDS011;1280;49.760;9.664;2024-03-17T15:54:54;7.07;;;3.67;;
2538;SDS011;1280;49.760;9.664;2024-03-17T15:57:25;7.27;;;4.10;;
2538;SDS011;1280;49.760;9.664;2024-03-17T15:59:55;9.30;;;3.90;;
2538;SDS011;1280;49.760;9.664;2024-03-17T16:02:25;6.97;;;3.47;;